createdAt,value
2019-05-20T00:01:53.634Z,13.47
2019-05-20T00:06:05.489Z,12.63
2019-05-20T00:10:17.720Z,13.30
2019-05-20T00:14:29.600Z,13.30
2019-05-20T00:18:41.968Z,14.53
2019-05-20T00:22:54.992Z,16.10
2019-05-20T00:27:07.861Z,13.60
2019-05-20T00:31:19.843Z,14.03
2019-05-20T00:35:31.433Z,14.40
2019-05-20T00:39:43.211Z,15.37
2019-05-20T00:43:55.016Z,13.70
2019-05-20T00:48:06.827Z,14.00
2019-05-20T00:52:18.726Z,14.47
2019-05-20T00:56:30.615Z,13.67
2019-05-20T01:00:42.732Z,15.03
2019-05-20T01:04:54.625Z,13.90
2019-05-20T01:09:08.506Z,14.10
2019-05-20T01:13:20.291Z,15.37
2019-05-20T01:17:32.097Z,13.73
2019-05-20T01:21:43.693Z,12.80
2019-05-20T01:25:55.369Z,12.23
2019-05-20T01:30:07.740Z,13.37
2019-05-20T01:34:19.497Z,14.13
2019-05-20T01:38:31.300Z,13.27
2019-05-20T01:42:43.100Z,14.00
2019-05-20T01:46:54.909Z,13.83
2019-05-20T01:51:06.703Z,14.23
2019-05-20T01:55:18.300Z,14.37
2019-05-20T01:59:30.056Z,12.23
2019-05-20T02:03:42.033Z,13.27
2019-05-20T02:07:53.959Z,13.23
2019-05-20T02:12:05.812Z,13.20
2019-05-20T02:16:18.205Z,11.87
2019-05-20T02:20:30.033Z,12.90
2019-05-20T02:24:41.829Z,12.80
2019-05-20T02:28:53.833Z,13.00
2019-05-20T02:33:05.709Z,13.80
2019-05-20T02:37:17.566Z,13.73
2019-05-20T02:41:29.754Z,13.83
2019-05-20T02:45:41.804Z,15.03
2019-05-20T02:49:53.661Z,13.73
2019-05-20T02:54:05.468Z,14.97
2019-05-20T02:58:17.461Z,13.67
2019-05-20T03:02:29.685Z,12.77
2019-05-20T03:06:41.781Z,13.63
2019-05-20T03:10:54.065Z,13.70
2019-05-20T03:15:06.152Z,13.67
2019-05-20T03:19:18.013Z,12.87
2019-05-20T03:23:30.012Z,12.50
2019-05-20T03:27:41.921Z,13.63
2019-05-20T03:31:53.721Z,13.20
2019-05-20T03:36:05.395Z,14.67
2019-05-20T03:40:17.324Z,15.73
2019-05-20T03:44:29.016Z,14.30
2019-05-20T03:48:40.822Z,14.63
2019-05-20T03:52:52.618Z,14.13
2019-05-20T03:57:04.433Z,13.33
2019-05-20T04:01:16.222Z,14.57
2019-05-20T04:05:28.106Z,13.57
2019-05-20T04:09:39.933Z,14.57
2019-05-20T04:13:51.623Z,14.03
2019-05-20T04:18:03.428Z,14.57
2019-05-20T04:22:15.332Z,14.53
2019-05-20T04:26:27.141Z,14.97
2019-05-20T04:30:38.940Z,14.20
2019-05-20T04:34:50.738Z,13.77
2019-05-20T04:39:02.600Z,12.80
2019-05-20T04:43:14.252Z,12.40
2019-05-20T04:47:25.933Z,12.57
2019-05-20T04:51:37.733Z,13.50
2019-05-20T04:55:49.535Z,14.07
2019-05-20T05:00:01.351Z,12.40
2019-05-20T05:04:13.153Z,13.10
2019-05-20T05:08:25.142Z,13.50
2019-05-20T05:12:36.767Z,14.27
2019-05-20T05:16:48.446Z,13.10
2019-05-20T05:21:00.245Z,13.47
2019-05-20T05:25:12.353Z,12.17
2019-05-20T05:29:24.141Z,12.57
2019-05-20T05:33:35.958Z,13.23
2019-05-20T05:37:48.882Z,11.80
2019-05-20T05:42:00.669Z,12.47
2019-05-20T05:46:12.480Z,12.43
2019-05-20T05:50:24.278Z,12.17
2019-05-20T05:54:36.089Z,11.77
2019-05-20T05:58:47.999Z,12.17
2019-05-20T06:02:59.809Z,11.67
2019-05-20T06:07:11.645Z,10.93
2019-05-20T06:11:23.549Z,11.00
2019-05-20T06:15:35.200Z,11.40
2019-05-20T06:19:46.887Z,10.30
2019-05-20T06:23:58.737Z,10.23
2019-05-20T06:28:11.026Z,10.03
2019-05-20T06:32:22.912Z,10.00
2019-05-20T06:36:40.340Z,10.43
2019-05-20T06:40:52.013Z,10.27
2019-05-20T06:45:03.746Z,10.57
2019-05-20T06:49:15.536Z,9.50
2019-05-20T06:53:27.335Z,10.70
2019-05-20T06:57:39.245Z,9.77
2019-05-20T07:01:51.064Z,9.97
2019-05-20T07:06:02.784Z,10.17
2019-05-20T07:10:14.600Z,9.03
2019-05-20T07:14:26.449Z,9.00
2019-05-20T07:18:38.244Z,8.13
2019-05-20T07:22:55.729Z,9.07
2019-05-20T07:27:03.490Z,8.90
2019-05-20T07:31:15.105Z,8.13
2019-05-20T07:35:30.632Z,8.30
2019-05-20T07:39:40.325Z,7.27
2019-05-20T07:43:52.182Z,7.40
2019-05-20T07:48:05.829Z,7.60
2019-05-20T07:52:17.889Z,7.27
2019-05-20T07:56:32.995Z,7.40
2019-05-20T08:00:44.761Z,6.50
2019-05-20T08:04:56.405Z,7.20
2019-05-20T08:09:09.134Z,6.53
2019-05-20T08:13:21.144Z,6.10
2019-05-20T08:17:32.990Z,6.27
2019-05-20T08:21:44.804Z,6.43
2019-05-20T08:25:56.404Z,6.20
2019-05-20T08:30:08.320Z,6.73
2019-05-20T08:34:20.089Z,6.37
2019-05-20T08:38:31.889Z,6.20
2019-05-20T08:42:43.660Z,6.30
2019-05-20T08:46:55.508Z,6.60
2019-05-20T08:51:07.177Z,5.30
2019-05-20T08:55:19.003Z,5.33
2019-05-20T08:59:30.792Z,5.57
2019-05-20T09:03:42.611Z,5.47
2019-05-20T09:08:03.182Z,5.43
2019-05-20T09:12:08.300Z,4.60
2019-05-20T09:16:20.205Z,4.67
2019-05-20T09:20:32.123Z,4.67
2019-05-20T09:24:44.010Z,4.60
2019-05-20T09:28:55.694Z,4.90
2019-05-20T09:33:07.567Z,4.33
2019-05-20T09:37:19.565Z,3.97
2019-05-20T09:41:31.367Z,3.93
2019-05-20T09:45:43.254Z,3.40
2019-05-20T09:49:55.111Z,3.57
2019-05-20T09:54:06.776Z,3.70
2019-05-20T09:58:18.465Z,3.70
2019-05-20T10:02:35.996Z,4.83
2019-05-20T10:06:44.759Z,4.37
2019-05-20T10:10:59.580Z,4.07
2019-05-20T10:15:10.545Z,3.07
2019-05-20T10:19:22.266Z,3.70
2019-05-20T10:23:33.995Z,3.70
2019-05-20T10:27:45.781Z,3.77
2019-05-20T10:31:57.607Z,3.50
2019-05-20T10:36:09.384Z,3.00
2019-05-20T10:40:21.295Z,2.80
2019-05-20T10:44:32.908Z,3.40
2019-05-20T10:48:45.974Z,2.77
2019-05-20T10:52:57.731Z,2.67
2019-05-20T10:57:09.519Z,3.00
2019-05-20T11:01:21.147Z,2.70
2019-05-20T11:05:33.379Z,2.60
2019-05-20T11:09:45.143Z,2.83
2019-05-20T11:13:56.986Z,2.60
2019-05-20T11:18:09.776Z,2.30
2019-05-20T11:22:22.130Z,2.63
2019-05-20T11:26:33.978Z,2.57
2019-05-20T11:30:45.773Z,2.30
2019-05-20T11:34:57.577Z,2.90
2019-05-20T11:39:09.681Z,2.50
2019-05-20T11:43:21.503Z,2.47
2019-05-20T11:47:33.398Z,2.80
2019-05-20T11:51:45.263Z,2.50
2019-05-20T11:55:57.200Z,2.90
2019-05-20T12:00:09.707Z,2.30
2019-05-20T12:04:21.518Z,2.33
2019-05-20T12:08:33.427Z,2.20
2019-05-20T12:12:46.204Z,2.70
2019-05-20T12:16:58.201Z,2.83
2019-05-20T12:21:10.053Z,2.53
2019-05-20T12:25:21.907Z,2.70
2019-05-20T12:29:34.713Z,2.77
2019-05-20T12:33:46.474Z,2.40
2019-05-20T12:37:58.558Z,2.70
2019-05-20T12:42:10.703Z,2.37
2019-05-20T12:46:22.599Z,2.30
2019-05-20T12:50:34.408Z,2.70
2019-05-20T12:54:46.141Z,2.30
2019-05-20T12:58:57.881Z,2.50
2019-05-20T13:03:09.801Z,2.60
2019-05-20T13:07:22.739Z,2.53
2019-05-20T13:11:34.385Z,2.50
2019-05-20T13:15:46.157Z,2.10
2019-05-20T13:19:57.932Z,2.40
2019-05-20T13:24:09.830Z,2.50
2019-05-20T13:28:21.695Z,2.30
2019-05-20T13:32:33.527Z,2.33
2019-05-20T13:36:45.445Z,2.10
2019-05-20T13:40:57.179Z,2.20
2019-05-20T13:45:09.262Z,2.10
2019-05-20T13:49:20.929Z,2.03
2019-05-20T13:53:32.736Z,2.03
2019-05-20T13:57:44.612Z,2.00
2019-05-20T14:01:56.449Z,2.17
2019-05-20T14:06:08.261Z,1.90
2019-05-20T14:10:20.013Z,1.97
2019-05-20T14:14:31.796Z,1.70
2019-05-20T14:18:43.655Z,1.70
2019-05-20T14:22:55.655Z,1.80
2019-05-20T14:27:07.457Z,2.10
2019-05-20T14:31:19.306Z,2.00
2019-05-20T14:35:30.881Z,1.60
2019-05-20T14:39:43.801Z,1.77
2019-05-20T14:43:55.684Z,1.90
2019-05-20T14:48:07.519Z,1.30
2019-05-20T14:52:19.289Z,1.73
2019-05-20T14:56:31.078Z,2.03
2019-05-20T15:00:43.198Z,1.50
2019-05-20T15:04:54.987Z,1.20
2019-05-20T15:09:08.741Z,1.40
2019-05-20T15:13:20.757Z,1.80
2019-05-20T15:17:32.704Z,1.70
2019-05-20T15:21:44.553Z,1.47
2019-05-20T15:25:56.369Z,1.30
2019-05-20T15:30:09.600Z,1.53
2019-05-20T15:34:21.333Z,1.70
2019-05-20T15:38:33.084Z,1.77
2019-05-20T15:42:44.894Z,1.47
2019-05-20T15:46:57.752Z,1.40
2019-05-20T15:51:09.517Z,1.63
2019-05-20T15:55:21.424Z,1.40
2019-05-20T15:59:45.634Z,1.43
2019-05-20T16:03:50.972Z,1.17
2019-05-20T16:08:01.575Z,1.27
2019-05-20T16:12:13.654Z,1.47
2019-05-20T16:16:25.330Z,1.23
2019-05-20T16:20:37.149Z,1.13
2019-05-20T16:24:48.938Z,1.30
2019-05-20T16:29:00.743Z,1.40
2019-05-20T16:33:12.540Z,1.27
2019-05-20T16:37:24.205Z,1.33
2019-05-20T16:41:36.032Z,0.90
2019-05-20T16:45:47.838Z,1.20
2019-05-20T16:50:00.481Z,1.10
2019-05-20T16:54:12.163Z,1.00
2019-05-20T16:58:24.176Z,1.33
2019-05-20T17:02:36.059Z,1.10
2019-05-20T17:06:48.133Z,1.17
2019-05-20T17:10:59.974Z,1.03
2019-05-20T17:15:12.338Z,1.30
2019-05-20T17:19:24.251Z,1.20
2019-05-20T17:23:36.089Z,1.10
2019-05-20T17:27:47.929Z,1.07
2019-05-20T17:31:59.506Z,1.10
2019-05-20T17:36:11.189Z,1.30
2019-05-20T17:40:23.040Z,1.50
2019-05-20T17:44:34.994Z,1.33
2019-05-20T17:48:46.905Z,1.37
2019-05-20T17:52:58.716Z,1.00
2019-05-20T17:57:10.528Z,1.63
2019-05-20T18:01:22.126Z,1.03
2019-05-20T18:05:33.897Z,1.37
2019-05-20T18:09:49.129Z,1.33
2019-05-20T18:14:01.448Z,1.40
2019-05-20T18:18:13.335Z,1.43
2019-05-20T18:22:25.399Z,1.20
2019-05-20T18:26:37.202Z,1.30
2019-05-20T18:30:49.101Z,1.47
2019-05-20T18:35:00.922Z,1.07
2019-05-20T18:39:12.530Z,1.40
2019-05-20T18:43:24.357Z,1.50
2019-05-20T18:47:37.238Z,1.50
2019-05-20T18:51:48.835Z,1.73
2019-05-20T18:56:00.524Z,1.50
2019-05-20T19:00:14.010Z,1.70
2019-05-20T19:04:25.758Z,1.60
2019-05-20T19:08:37.560Z,1.30
2019-05-20T19:12:49.746Z,1.57
2019-05-20T19:17:01.580Z,1.80
2019-05-20T19:21:13.489Z,1.37
2019-05-20T19:25:37.003Z,1.77
2019-05-20T19:29:39.740Z,1.47
2019-05-20T19:33:51.660Z,1.57
2019-05-20T19:38:03.439Z,1.60
2019-05-20T19:42:15.270Z,1.60
2019-05-20T19:46:26.934Z,1.57
2019-05-20T19:50:38.655Z,1.70
2019-05-20T19:54:50.556Z,1.50
2019-05-20T19:59:02.351Z,1.47
2019-05-20T20:03:14.352Z,1.70
2019-05-20T20:07:28.699Z,1.77
2019-05-20T20:11:39.594Z,2.30
2019-05-20T20:15:51.401Z,1.70
2019-05-20T20:20:04.328Z,1.87
2019-05-20T20:24:16.120Z,2.20
2019-05-20T20:28:27.925Z,2.20
2019-05-20T20:32:39.729Z,1.63
2019-05-20T20:36:51.560Z,2.13
2019-05-20T20:41:03.229Z,1.83
2019-05-20T20:45:15.709Z,1.87
2019-05-20T20:49:27.616Z,2.13
2019-05-20T20:53:39.269Z,2.10
2019-05-20T20:57:51.041Z,1.97
2019-05-20T21:02:02.839Z,2.60
2019-05-20T21:06:14.653Z,2.83
2019-05-20T21:10:26.452Z,2.40
2019-05-20T21:14:38.179Z,2.77
2019-05-20T21:18:50.135Z,2.60
2019-05-20T21:23:01.842Z,2.70
2019-05-20T21:27:13.666Z,2.83
2019-05-20T21:31:25.557Z,3.13
2019-05-20T21:35:37.348Z,2.87
2019-05-20T21:39:49.168Z,3.10
2019-05-20T21:44:00.868Z,2.90
2019-05-20T21:48:13.804Z,2.90
2019-05-20T21:52:25.946Z,3.10
2019-05-20T21:56:38.749Z,3.27
2019-05-20T22:00:56.791Z,2.90
2019-05-20T22:05:09.176Z,3.03
2019-05-20T22:09:21.010Z,3.40
2019-05-20T22:13:32.665Z,3.23
2019-05-20T22:17:44.596Z,3.67
2019-05-20T22:22:14.050Z,3.53
2019-05-20T22:26:25.787Z,3.20
2019-05-20T22:30:37.607Z,3.77
2019-05-20T22:34:53.717Z,4.40
2019-05-20T22:39:02.852Z,3.70
2019-05-20T22:43:14.649Z,3.93
2019-05-20T22:47:26.451Z,3.27
2019-05-20T22:51:38.093Z,3.80
2019-05-20T22:55:50.050Z,3.83
2019-05-20T23:00:03.692Z,4.00
2019-05-20T23:04:15.524Z,4.03
2019-05-20T23:08:27.289Z,3.93
2019-05-20T23:12:39.098Z,4.67
2019-05-20T23:16:50.977Z,4.90
2019-05-20T23:21:03.056Z,4.43
2019-05-20T23:25:14.962Z,4.60
2019-05-20T23:29:27.639Z,4.60
2019-05-20T23:33:39.428Z,4.40
2019-05-20T23:37:51.438Z,5.00
2019-05-20T23:42:03.334Z,4.57
2019-05-20T23:46:15.181Z,4.80
2019-05-20T23:50:27.039Z,4.53
2019-05-20T23:54:38.696Z,4.87
2019-05-20T23:58:50.565Z,4.57
